createdAt,value
2022-12-11T00:00:57.725Z,92.95
2022-12-11T00:02:29.454Z,93.70
2022-12-11T00:04:02.501Z,94.17
2022-12-11T00:05:34.206Z,93.46
2022-12-11T00:07:07.681Z,94.00
2022-12-11T00:08:39.347Z,94.11
2022-12-11T00:10:10.950Z,93.89
2022-12-11T00:11:42.686Z,93.59
2022-12-11T00:13:14.315Z,93.73
2022-12-11T00:14:45.910Z,94.13
2022-12-11T00:16:20.337Z,94.37
2022-12-11T00:17:54.162Z,93.75
2022-12-11T00:19:27.163Z,93.73
2022-12-11T00:21:02.525Z,93.26
2022-12-11T00:22:34.185Z,93.29
2022-12-11T00:24:06.540Z,93.57
2022-12-11T00:25:41.413Z,94.12
2022-12-11T00:27:13.099Z,93.67
2022-12-11T00:28:44.850Z,93.16
2022-12-11T00:30:16.565Z,93.60
2022-12-11T00:31:48.219Z,93.44
2022-12-11T00:33:19.859Z,94.59
2022-12-11T00:34:52.913Z,93.69
2022-12-11T00:36:28.097Z,93.94
2022-12-11T00:38:03.056Z,93.17
2022-12-11T00:39:34.738Z,93.17
2022-12-11T00:41:06.367Z,93.36
2022-12-11T00:42:38.017Z,92.99
2022-12-11T00:44:10.159Z,93.28
2022-12-11T00:45:42.606Z,92.86
2022-12-11T00:47:14.258Z,93.46
2022-12-11T00:48:46.343Z,94.06
2022-12-11T00:50:19.431Z,94.47
2022-12-11T00:51:51.047Z,94.08
2022-12-11T00:53:22.723Z,93.43
2022-12-11T00:54:54.371Z,93.95
2022-12-11T00:56:26.231Z,94.13
2022-12-11T00:57:58.426Z,94.31
2022-12-11T00:59:30.040Z,94.01
2022-12-11T01:01:06.124Z,93.87
2022-12-11T01:02:37.816Z,93.37
2022-12-11T01:04:09.495Z,93.66
2022-12-11T01:05:42.547Z,93.13
2022-12-11T01:07:14.166Z,93.30
2022-12-11T01:08:46.146Z,93.30
2022-12-11T01:10:26.726Z,93.68
2022-12-11T01:11:58.454Z,93.81
2022-12-11T01:13:30.121Z,93.84
2022-12-11T01:15:01.866Z,94.35
2022-12-11T01:16:33.461Z,93.61
2022-12-11T01:18:05.207Z,93.88
2022-12-11T01:19:37.335Z,93.75
2022-12-11T01:21:11.334Z,93.32
2022-12-11T01:22:42.955Z,93.55
2022-12-11T01:24:14.570Z,93.94
2022-12-11T01:25:46.213Z,93.00
2022-12-11T01:27:17.838Z,93.99
2022-12-11T01:28:49.619Z,93.76
2022-12-11T01:30:22.699Z,93.88
2022-12-11T01:31:54.311Z,93.82
2022-12-11T01:33:26.133Z,94.46
2022-12-11T01:34:57.791Z,94.14
2022-12-11T01:36:30.783Z,93.70
2022-12-11T01:38:02.886Z,93.72
2022-12-11T01:39:34.509Z,94.03
2022-12-11T01:41:06.168Z,94.70
2022-12-11T01:42:37.852Z,95.04
2022-12-11T01:44:42.585Z,94.52
2022-12-11T01:46:14.239Z,93.64
2022-12-11T01:47:45.881Z,94.00
2022-12-11T01:49:17.785Z,94.34
2022-12-11T01:50:50.291Z,94.20
2022-12-11T01:52:23.712Z,94.00
2022-12-11T01:53:57.333Z,93.38
2022-12-11T01:55:28.948Z,93.92
2022-12-11T01:57:01.589Z,93.82
2022-12-11T01:58:35.374Z,93.63
2022-12-11T02:00:08.200Z,93.74
2022-12-11T02:01:40.965Z,93.87
2022-12-11T02:03:12.684Z,93.31
2022-12-11T02:04:44.337Z,93.36
2022-12-11T02:06:30.115Z,93.41
2022-12-11T02:08:03.385Z,92.98
2022-12-11T02:09:35.725Z,94.03
2022-12-11T02:11:10.152Z,93.98
2022-12-11T02:12:46.540Z,93.98
2022-12-11T02:14:20.434Z,93.52
2022-12-11T02:15:56.297Z,93.32
2022-12-11T02:17:30.131Z,93.29
2022-12-11T02:19:07.853Z,93.70
2022-12-11T02:20:42.572Z,94.31
2022-12-11T02:22:17.007Z,93.69
2022-12-11T02:23:58.830Z,93.82
2022-12-11T02:25:32.663Z,93.66
2022-12-11T02:27:14.783Z,94.26
2022-12-11T02:28:49.093Z,93.74
2022-12-11T02:30:20.797Z,93.92
2022-12-11T02:31:54.485Z,94.59
2022-12-11T02:33:29.960Z,94.45
2022-12-11T02:35:04.856Z,94.64
2022-12-11T02:36:38.925Z,93.88
2022-12-11T02:38:12.421Z,93.56
2022-12-11T02:39:44.023Z,93.66
2022-12-11T02:41:15.638Z,93.60
2022-12-11T02:42:47.583Z,93.53
2022-12-11T02:44:30.409Z,94.03
2022-12-11T02:46:02.392Z,93.61
2022-12-11T02:47:34.129Z,93.93
2022-12-11T02:49:05.841Z,93.92
2022-12-11T02:50:38.975Z,94.19
2022-12-11T02:52:11.298Z,94.31
2022-12-11T02:53:43.026Z,93.97
2022-12-11T02:55:15.016Z,93.29
2022-12-11T02:56:48.101Z,93.36
2022-12-11T02:58:21.544Z,93.82
2022-12-11T02:59:54.518Z,93.24
2022-12-11T03:01:26.182Z,92.60
2022-12-11T03:02:57.913Z,94.30
2022-12-11T03:04:29.673Z,93.83
2022-12-11T03:06:01.287Z,93.79
2022-12-11T03:07:34.593Z,93.41
2022-12-11T03:09:06.663Z,92.72
2022-12-11T03:10:38.390Z,93.11
2022-12-11T03:12:11.682Z,93.08
2022-12-11T03:13:43.299Z,93.63
2022-12-11T03:15:18.396Z,93.44
2022-12-11T03:16:55.434Z,93.33
2022-12-11T03:18:29.805Z,92.56
2022-12-11T03:20:05.119Z,92.53
2022-12-11T03:21:40.370Z,93.22
2022-12-11T03:23:16.654Z,91.99
2022-12-11T03:24:50.658Z,92.04
2022-12-11T03:26:22.283Z,91.94
2022-12-11T03:27:56.259Z,92.83
2022-12-11T03:29:31.250Z,93.28
2022-12-11T03:31:06.823Z,93.22
2022-12-11T03:32:39.788Z,93.64
2022-12-11T03:34:13.746Z,93.07
2022-12-11T03:35:47.423Z,93.92
2022-12-11T03:37:19.026Z,93.12
2022-12-11T03:38:51.634Z,94.26
2022-12-11T03:40:23.276Z,94.03
2022-12-11T03:41:54.889Z,93.84
2022-12-11T03:43:26.545Z,94.51
2022-12-11T03:44:58.234Z,94.13
2022-12-11T03:46:32.364Z,94.78
2022-12-11T03:48:04.509Z,94.35
2022-12-11T03:49:38.471Z,95.06
2022-12-11T03:51:10.215Z,94.30
2022-12-11T03:52:45.777Z,94.33
2022-12-11T03:54:18.045Z,94.92
2022-12-11T03:55:49.697Z,94.73
2022-12-11T03:57:22.350Z,94.37
2022-12-11T03:58:54.256Z,94.03
2022-12-11T04:00:25.891Z,93.66
2022-12-11T04:01:59.035Z,93.82
2022-12-11T04:03:30.748Z,93.51
2022-12-11T04:05:02.378Z,93.49
2022-12-11T04:06:34.065Z,93.30
2022-12-11T04:08:05.855Z,93.04
2022-12-11T04:09:37.510Z,93.46
2022-12-11T04:11:28.795Z,92.49
2022-12-11T04:13:00.523Z,93.89
2022-12-11T04:14:50.688Z,94.02
2022-12-11T04:16:22.342Z,93.27
2022-12-11T04:18:13.859Z,93.31
2022-12-11T04:20:04.344Z,92.83
2022-12-11T04:21:54.810Z,93.32
2022-12-11T04:23:45.350Z,93.40
2022-12-11T04:25:17.015Z,93.02
2022-12-11T04:26:48.745Z,92.45
2022-12-11T04:28:20.358Z,92.92
2022-12-11T04:29:52.218Z,92.34
2022-12-11T04:31:23.960Z,93.02
2022-12-11T04:32:56.963Z,92.57
2022-12-11T04:34:28.807Z,91.55
2022-12-11T04:36:00.763Z,92.37
2022-12-11T04:37:32.442Z,92.30
2022-12-11T04:39:04.288Z,92.26
2022-12-11T04:40:35.925Z,91.94
2022-12-11T04:42:07.547Z,91.65
2022-12-11T04:43:39.188Z,91.95
2022-12-11T04:45:11.812Z,92.24
2022-12-11T04:46:44.656Z,91.71
2022-12-11T04:48:17.762Z,92.92
2022-12-11T04:49:49.428Z,93.13
2022-12-11T04:51:21.123Z,92.31
2022-12-11T04:52:54.476Z,91.60
2022-12-11T04:54:26.133Z,92.84
2022-12-11T04:55:57.878Z,91.78
2022-12-11T04:57:29.497Z,92.18
2022-12-11T04:59:01.140Z,92.27
2022-12-11T05:00:32.759Z,91.14
2022-12-11T05:02:04.505Z,90.95
2022-12-11T05:03:37.614Z,90.85
2022-12-11T05:05:10.409Z,90.90
2022-12-11T05:06:42.252Z,91.30
2022-12-11T05:08:13.918Z,91.34
2022-12-11T05:09:45.600Z,91.20
2022-12-11T05:11:17.984Z,91.36
2022-12-11T05:12:49.597Z,91.29
2022-12-11T05:14:21.362Z,91.26
2022-12-11T05:15:53.039Z,91.44
2022-12-11T05:17:24.696Z,90.61
2022-12-11T05:18:57.699Z,91.36
2022-12-11T05:20:29.374Z,91.09
2022-12-11T05:22:01.024Z,92.11
2022-12-11T05:23:33.093Z,92.16
2022-12-11T05:25:05.541Z,92.48
2022-12-11T05:26:37.161Z,92.58
2022-12-11T05:28:08.785Z,91.73
2022-12-11T05:29:40.591Z,91.42
2022-12-11T05:31:12.944Z,91.74
2022-12-11T05:32:44.624Z,91.76
2022-12-11T05:34:17.684Z,91.18
2022-12-11T05:35:49.381Z,91.31
2022-12-11T05:37:21.033Z,91.12
2022-12-11T05:38:53.083Z,91.29
2022-12-11T05:40:24.718Z,91.74
2022-12-11T05:41:56.352Z,91.82
2022-12-11T05:43:28.505Z,91.50
2022-12-11T05:45:00.119Z,91.49
2022-12-11T05:46:31.799Z,90.87
2022-12-11T05:48:03.701Z,90.95
2022-12-11T05:49:36.760Z,91.60
2022-12-11T05:51:08.543Z,91.64
2022-12-11T05:52:40.220Z,90.70
2022-12-11T05:54:11.884Z,91.54
2022-12-11T05:55:43.492Z,91.03
2022-12-11T05:57:15.139Z,90.93
2022-12-11T05:58:47.193Z,91.07
2022-12-11T06:00:18.860Z,90.84
2022-12-11T06:01:50.649Z,90.22
2022-12-11T06:03:22.373Z,91.02
2022-12-11T06:04:55.393Z,90.21
2022-12-11T06:06:27.199Z,89.81
2022-12-11T06:07:58.842Z,89.21
2022-12-11T06:09:30.464Z,89.74
2022-12-11T06:11:02.149Z,90.44
2022-12-11T06:12:33.766Z,90.73
2022-12-11T06:14:05.448Z,90.17
2022-12-11T06:15:37.046Z,91.06
2022-12-11T06:17:08.675Z,92.02
2022-12-11T06:18:41.041Z,91.50
2022-12-11T06:20:15.438Z,90.79
2022-12-11T06:21:48.850Z,90.24
2022-12-11T06:23:20.523Z,90.46
2022-12-11T06:24:52.192Z,91.93
2022-12-11T06:26:23.918Z,91.25
2022-12-11T06:27:55.545Z,91.06
2022-12-11T06:29:27.241Z,90.64
2022-12-11T06:30:58.903Z,90.98
2022-12-11T06:32:30.693Z,89.94
2022-12-11T06:34:02.358Z,90.54
2022-12-11T06:35:41.629Z,89.90
2022-12-11T06:37:15.152Z,89.67
2022-12-11T06:38:47.735Z,90.63
2022-12-11T06:40:19.475Z,91.90
2022-12-11T06:41:51.158Z,90.49
2022-12-11T06:43:22.927Z,90.93
2022-12-11T06:44:55.110Z,90.22
2022-12-11T06:46:26.749Z,90.36
2022-12-11T06:47:58.394Z,91.30
2022-12-11T06:49:30.507Z,90.68
2022-12-11T06:51:06.772Z,90.38
2022-12-11T06:52:38.442Z,89.21
2022-12-11T06:54:10.186Z,89.03
2022-12-11T06:55:41.888Z,91.21
2022-12-11T06:57:13.571Z,90.24
2022-12-11T06:58:45.205Z,90.76
2022-12-11T07:00:17.081Z,91.34
2022-12-11T07:01:48.800Z,90.88
2022-12-11T07:03:20.531Z,90.95
2022-12-11T07:04:55.188Z,90.87
2022-12-11T07:06:28.577Z,90.69
2022-12-11T07:08:00.283Z,90.96
2022-12-11T07:09:31.971Z,89.48
2022-12-11T07:11:04.866Z,89.91
2022-12-11T07:12:36.501Z,89.60
2022-12-11T07:14:08.930Z,90.15
2022-12-11T07:15:40.709Z,89.16
2022-12-11T07:17:12.715Z,89.69
2022-12-11T07:18:46.941Z,89.73
2022-12-11T07:20:18.571Z,89.36
2022-12-11T07:21:51.655Z,89.57
2022-12-11T07:23:23.331Z,89.99
2022-12-11T07:24:54.950Z,90.01
2022-12-11T07:26:26.674Z,89.88
2022-12-11T07:27:58.291Z,90.52
2022-12-11T07:29:29.958Z,90.46
2022-12-11T07:31:05.231Z,90.65
2022-12-11T07:32:36.954Z,90.31
2022-12-11T07:34:08.643Z,89.68
2022-12-11T07:35:40.396Z,90.18
2022-12-11T07:37:13.379Z,90.53
2022-12-11T07:38:45.071Z,89.93
2022-12-11T07:40:16.824Z,89.81
2022-12-11T07:41:48.503Z,90.21
2022-12-11T07:43:20.177Z,90.35
2022-12-11T07:44:51.845Z,90.16
2022-12-11T07:46:25.109Z,90.71
2022-12-11T07:47:56.740Z,91.24
2022-12-11T07:49:28.620Z,91.17
2022-12-11T07:51:08.146Z,90.55
2022-12-11T07:52:41.284Z,91.29
2022-12-11T07:54:16.543Z,91.15
2022-12-11T07:55:48.239Z,90.69
2022-12-11T07:57:19.887Z,91.05
2022-12-11T07:58:51.549Z,90.77
2022-12-11T08:00:23.232Z,90.20
2022-12-11T08:01:54.917Z,89.60
2022-12-11T08:03:26.640Z,90.30
2022-12-11T08:04:58.260Z,90.27
2022-12-11T08:06:30.705Z,90.40
2022-12-11T08:08:03.955Z,90.11
2022-12-11T08:09:35.608Z,89.62
2022-12-11T08:11:08.355Z,90.21
2022-12-11T08:12:39.976Z,90.70
2022-12-11T08:14:14.371Z,90.51
2022-12-11T08:15:45.987Z,90.59
2022-12-11T08:17:17.663Z,90.47
2022-12-11T08:18:49.431Z,90.58
2022-12-11T08:20:21.027Z,90.55
2022-12-11T08:21:52.637Z,91.62
2022-12-11T08:23:25.638Z,92.01
2022-12-11T08:24:57.379Z,90.83
2022-12-11T08:26:29.931Z,90.50
2022-12-11T08:28:01.586Z,91.27
2022-12-11T08:29:33.238Z,90.81
2022-12-11T08:31:05.192Z,90.82
2022-12-11T08:32:36.930Z,91.02
2022-12-11T08:34:08.648Z,92.06
2022-12-11T08:35:40.802Z,91.75
2022-12-11T08:37:13.586Z,91.48
2022-12-11T08:38:46.989Z,91.60
2022-12-11T08:40:18.690Z,91.22
2022-12-11T08:41:50.309Z,91.03
2022-12-11T08:43:22.056Z,91.00
2022-12-11T08:44:53.720Z,91.05
2022-12-11T08:46:26.061Z,90.91
2022-12-11T08:47:58.365Z,91.08
2022-12-11T08:49:34.391Z,90.67
2022-12-11T08:51:08.439Z,90.60
2022-12-11T08:52:40.051Z,90.76
2022-12-11T08:54:13.284Z,90.79
2022-12-11T08:55:44.959Z,90.55
2022-12-11T08:57:16.864Z,90.84
2022-12-11T08:58:48.709Z,91.04
2022-12-11T09:00:20.343Z,91.67
2022-12-11T09:01:52.109Z,90.54
2022-12-11T09:03:23.778Z,90.57
2022-12-11T09:04:55.401Z,90.07
2022-12-11T09:06:27.839Z,90.17
2022-12-11T09:07:59.485Z,90.22
2022-12-11T09:09:32.522Z,90.17
2022-12-11T09:11:05.027Z,90.64
2022-12-11T09:12:37.042Z,90.33
2022-12-11T09:14:08.858Z,90.37
2022-12-11T09:15:41.235Z,90.85
2022-12-11T09:17:12.840Z,91.11
2022-12-11T09:18:45.251Z,90.21
2022-12-11T09:20:16.912Z,89.67
2022-12-11T09:21:48.619Z,90.49
2022-12-11T09:23:20.436Z,89.87
2022-12-11T09:24:53.436Z,90.37
2022-12-11T09:26:25.234Z,90.38
2022-12-11T09:27:56.856Z,90.48
2022-12-11T09:29:28.542Z,91.58
2022-12-11T09:31:00.305Z,90.76
2022-12-11T09:32:32.020Z,90.19
2022-12-11T09:34:04.604Z,90.15
2022-12-11T09:35:37.339Z,91.18
2022-12-11T09:37:08.987Z,90.09
2022-12-11T09:38:40.639Z,90.01
2022-12-11T09:40:13.891Z,90.60
2022-12-11T09:41:52.461Z,90.83
2022-12-11T09:43:36.538Z,90.40
2022-12-11T09:45:11.411Z,91.18
2022-12-11T09:46:43.356Z,90.71
2022-12-11T09:48:15.431Z,90.47
2022-12-11T09:49:47.313Z,90.27
2022-12-11T09:51:21.426Z,89.79
2022-12-11T09:53:03.079Z,89.95
2022-12-11T09:54:34.735Z,89.73
2022-12-11T09:56:13.821Z,90.01
2022-12-11T09:57:48.867Z,89.38
2022-12-11T09:59:23.473Z,89.21
2022-12-11T10:00:57.195Z,88.42
2022-12-11T10:02:31.865Z,88.46
2022-12-11T10:04:10.602Z,87.87
2022-12-11T10:05:45.357Z,85.72
2022-12-11T10:07:18.088Z,86.25
2022-12-11T10:08:56.190Z,86.59
2022-12-11T10:10:33.926Z,86.11
2022-12-11T10:12:15.089Z,86.28
2022-12-11T10:13:49.361Z,86.54
2022-12-11T10:15:26.662Z,86.02
2022-12-11T10:17:00.011Z,86.41
2022-12-11T10:18:31.950Z,85.73
2022-12-11T10:20:07.827Z,85.30
2022-12-11T10:21:40.470Z,84.61
2022-12-11T10:23:19.036Z,85.26
2022-12-11T10:25:10.712Z,86.30
2022-12-11T10:26:43.131Z,85.63
2022-12-11T10:28:16.733Z,84.99
2022-12-11T10:29:48.844Z,84.32
2022-12-11T10:31:24.356Z,85.42
2022-12-11T10:33:00.081Z,84.72
2022-12-11T10:34:34.662Z,86.11
2022-12-11T10:36:06.896Z,85.34
2022-12-11T10:37:38.810Z,84.34
2022-12-11T10:39:12.628Z,85.78
2022-12-11T10:40:49.332Z,85.00
2022-12-11T10:42:23.136Z,85.63
2022-12-11T10:43:56.298Z,85.55
2022-12-11T10:45:27.984Z,86.00
2022-12-11T10:47:03.879Z,86.03
2022-12-11T10:48:35.517Z,85.25
2022-12-11T10:50:07.558Z,87.39
2022-12-11T10:51:39.172Z,85.64
2022-12-11T10:53:20.067Z,86.89
2022-12-11T10:54:59.917Z,86.74
2022-12-11T10:56:32.703Z,85.93
2022-12-11T10:58:05.304Z,86.68
2022-12-11T10:59:40.685Z,86.51
2022-12-11T11:01:14.930Z,87.01
2022-12-11T11:02:46.741Z,88.01
2022-12-11T11:04:20.594Z,88.81
2022-12-11T11:06:02.325Z,87.62
2022-12-11T11:07:34.409Z,87.25
2022-12-11T11:09:28.218Z,88.15
2022-12-11T11:11:00.525Z,88.23
2022-12-11T11:12:37.684Z,88.56
2022-12-11T11:14:14.329Z,89.22
2022-12-11T11:15:47.456Z,89.99
2022-12-11T11:17:19.236Z,89.60
2022-12-11T11:18:53.328Z,90.31
2022-12-11T11:20:26.253Z,89.01
2022-12-11T11:21:59.195Z,88.38
2022-12-11T11:23:30.975Z,88.41
2022-12-11T11:25:04.941Z,89.53
2022-12-11T11:27:11.205Z,89.69
2022-12-11T11:28:29.407Z,90.81
2022-12-11T11:30:01.778Z,90.95
2022-12-11T11:31:34.979Z,90.21
2022-12-11T11:33:12.625Z,90.79
2022-12-11T11:34:45.510Z,90.48
2022-12-11T11:36:22.221Z,89.08
2022-12-11T11:37:57.893Z,89.71
2022-12-11T11:39:32.351Z,91.10
2022-12-11T11:41:14.691Z,90.74
2022-12-11T11:42:49.530Z,90.13
2022-12-11T11:44:25.339Z,90.40
2022-12-11T11:45:59.708Z,89.85
2022-12-11T11:47:34.726Z,89.93
2022-12-11T11:49:10.055Z,90.65
2022-12-11T11:50:44.987Z,89.65
2022-12-11T11:52:19.491Z,88.78
2022-12-11T11:53:51.825Z,88.51
2022-12-11T11:55:30.125Z,88.11
2022-12-11T11:57:03.108Z,88.33
2022-12-11T11:58:38.252Z,88.75
2022-12-11T12:00:17.575Z,88.60
2022-12-11T12:01:56.334Z,89.37
2022-12-11T12:03:29.617Z,89.75
2022-12-11T12:05:01.823Z,89.65
2022-12-11T12:06:50.482Z,88.18
2022-12-11T12:08:30.200Z,88.59
2022-12-11T12:10:06.507Z,88.50
2022-12-11T12:11:40.320Z,88.14
2022-12-11T12:13:44.801Z,88.03
2022-12-11T12:15:18.441Z,87.16
2022-12-11T12:16:54.197Z,87.73
2022-12-11T12:18:31.877Z,87.68
2022-12-11T12:20:08.945Z,88.25
2022-12-11T12:21:42.180Z,88.28
2022-12-11T12:23:36.276Z,88.50
2022-12-11T12:25:15.869Z,87.83
2022-12-11T12:26:50.389Z,87.29
2022-12-11T12:28:28.924Z,87.75
2022-12-11T12:30:03.428Z,87.22
2022-12-11T12:31:42.841Z,87.40
2022-12-11T12:33:20.959Z,86.84
2022-12-11T12:35:02.694Z,87.98
2022-12-11T12:36:37.662Z,87.68
2022-12-11T12:38:12.975Z,87.52
2022-12-11T12:39:50.128Z,86.48
2022-12-11T12:41:24.052Z,85.75
2022-12-11T12:43:00.378Z,85.52
2022-12-11T12:44:33.271Z,85.94
2022-12-11T12:46:08.923Z,85.95
2022-12-11T12:47:40.929Z,85.89
2022-12-11T12:49:14.435Z,86.50
2022-12-11T12:50:48.796Z,86.49
2022-12-11T12:52:21.891Z,87.04
2022-12-11T12:53:55.617Z,86.93
2022-12-11T12:55:28.925Z,87.10
2022-12-11T12:57:00.946Z,87.14
2022-12-11T12:58:41.346Z,88.06
2022-12-11T13:00:13.808Z,87.61
2022-12-11T13:01:46.719Z,85.87
2022-12-11T13:03:22.723Z,85.10
2022-12-11T13:05:07.590Z,85.83
2022-12-11T13:06:41.802Z,86.37
2022-12-11T13:08:13.746Z,86.54
2022-12-11T13:09:56.191Z,85.74
2022-12-11T13:11:31.792Z,86.08
2022-12-11T13:13:04.126Z,85.87
2022-12-11T13:14:35.811Z,87.31
2022-12-11T13:16:24.324Z,86.16
2022-12-11T13:17:56.006Z,87.88
2022-12-11T13:19:27.946Z,88.24
2022-12-11T13:20:59.571Z,87.42
2022-12-11T13:22:32.644Z,86.52
2022-12-11T13:24:14.176Z,87.80
2022-12-11T13:25:48.293Z,87.18
2022-12-11T13:27:23.676Z,87.35
2022-12-11T13:28:55.364Z,88.31
2022-12-11T13:30:28.462Z,87.61
2022-12-11T13:32:01.398Z,87.22
2022-12-11T13:33:33.146Z,87.86
2022-12-11T13:35:06.017Z,86.53
2022-12-11T13:36:38.957Z,88.63
2022-12-11T13:38:15.874Z,87.74
2022-12-11T13:39:47.765Z,87.17
2022-12-11T13:41:20.240Z,85.86
2022-12-11T13:42:52.846Z,88.14
2022-12-11T13:44:25.801Z,89.16
2022-12-11T13:45:57.897Z,89.05
2022-12-11T13:47:29.561Z,88.25
2022-12-11T13:49:01.923Z,87.37
2022-12-11T13:50:34.154Z,87.35
2022-12-11T13:52:06.107Z,88.35
2022-12-11T13:53:39.090Z,88.19
2022-12-11T13:55:17.487Z,87.52
2022-12-11T13:56:56.821Z,86.62
2022-12-11T13:58:28.899Z,85.24
2022-12-11T14:00:00.657Z,86.87
2022-12-11T14:01:32.763Z,87.17
2022-12-11T14:03:07.378Z,86.07
2022-12-11T14:04:39.050Z,86.15
2022-12-11T14:06:16.596Z,83.10
2022-12-11T14:07:52.150Z,85.44
2022-12-11T14:09:26.576Z,85.03
2022-12-11T14:10:58.250Z,83.53
2022-12-11T14:12:30.383Z,82.59
2022-12-11T14:14:03.494Z,85.71
2022-12-11T14:15:35.588Z,84.40
2022-12-11T14:17:11.370Z,84.54
2022-12-11T14:18:43.018Z,85.37
2022-12-11T14:20:17.416Z,83.25
2022-12-11T14:22:04.658Z,85.06
2022-12-11T14:23:36.703Z,84.28
2022-12-11T14:25:19.107Z,84.50
2022-12-11T14:26:51.279Z,85.44
2022-12-11T14:28:23.389Z,85.37
2022-12-11T14:29:55.344Z,84.71
2022-12-11T14:31:28.108Z,84.78
2022-12-11T14:33:01.267Z,85.34
2022-12-11T14:34:35.809Z,85.82
2022-12-11T14:36:08.242Z,85.99
2022-12-11T14:37:39.914Z,85.83
2022-12-11T14:39:13.540Z,86.37
2022-12-11T14:40:48.346Z,86.64
2022-12-11T14:42:20.855Z,87.11
2022-12-11T14:43:53.796Z,87.04
2022-12-11T14:45:30.284Z,86.01
2022-12-11T14:47:03.146Z,87.37
2022-12-11T14:48:36.242Z,85.94
2022-12-11T14:50:08.738Z,85.96
2022-12-11T14:51:40.574Z,86.31
2022-12-11T14:53:15.407Z,85.87
2022-12-11T14:54:52.751Z,86.54
2022-12-11T14:56:26.541Z,87.39
2022-12-11T14:58:00.180Z,87.77
2022-12-11T14:59:32.476Z,85.45
2022-12-11T15:01:05.433Z,85.91
2022-12-11T15:02:37.226Z,85.26
2022-12-11T15:04:20.052Z,85.02
2022-12-11T15:05:52.654Z,86.56
2022-12-11T15:07:24.304Z,85.61
2022-12-11T15:08:55.991Z,86.95
2022-12-11T15:10:31.442Z,87.05
2022-12-11T15:12:10.461Z,87.21
2022-12-11T15:13:49.580Z,87.35
2022-12-11T15:15:21.243Z,86.85
2022-12-11T15:16:54.402Z,87.67
2022-12-11T15:18:27.373Z,87.56
2022-12-11T15:20:02.789Z,87.44
2022-12-11T15:21:38.736Z,87.37
2022-12-11T15:23:15.511Z,87.01
2022-12-11T15:24:51.205Z,86.54
2022-12-11T15:26:33.063Z,87.19
2022-12-11T15:28:22.794Z,88.09
2022-12-11T15:29:54.577Z,87.22
2022-12-11T15:31:27.224Z,87.28
2022-12-11T15:33:15.613Z,87.36
2022-12-11T15:34:48.290Z,87.98
2022-12-11T15:36:23.622Z,88.04
2022-12-11T15:37:56.120Z,88.60
2022-12-11T15:39:27.794Z,89.27
2022-12-11T15:40:59.482Z,89.16
2022-12-11T15:42:32.084Z,89.12
2022-12-11T15:44:17.801Z,89.11
2022-12-11T15:45:52.413Z,88.28
2022-12-11T15:47:25.048Z,88.52
2022-12-11T15:48:56.916Z,88.72
2022-12-11T15:50:28.902Z,88.56
2022-12-11T15:52:00.561Z,88.49
2022-12-11T15:53:32.231Z,89.13
2022-12-11T15:55:04.760Z,88.25
2022-12-11T15:56:36.391Z,89.55
2022-12-11T15:58:09.426Z,90.01
2022-12-11T15:59:42.600Z,89.96
2022-12-11T16:01:14.417Z,89.60
2022-12-11T16:02:46.256Z,88.99
2022-12-11T16:04:17.952Z,89.50
2022-12-11T16:05:49.782Z,88.38
2022-12-11T16:07:22.415Z,89.85
2022-12-11T16:08:54.058Z,90.23
2022-12-11T16:10:26.139Z,89.15
2022-12-11T16:11:57.820Z,89.35
2022-12-11T16:13:29.553Z,90.08
2022-12-11T16:15:02.659Z,89.35
2022-12-11T16:16:34.381Z,89.02
2022-12-11T16:18:07.122Z,90.53
2022-12-11T16:19:38.853Z,89.18
2022-12-11T16:21:10.488Z,89.31
2022-12-11T16:22:42.127Z,89.59
2022-12-11T16:24:13.846Z,89.61
2022-12-11T16:25:45.871Z,89.22
2022-12-11T16:27:22.939Z,89.56
2022-12-11T16:28:54.960Z,89.45
2022-12-11T16:30:28.454Z,89.49
2022-12-11T16:32:00.155Z,89.58
2022-12-11T16:33:31.828Z,89.93
2022-12-11T16:35:03.913Z,90.17
2022-12-11T16:36:35.585Z,90.38
2022-12-11T16:38:07.800Z,89.34
2022-12-11T16:39:39.588Z,89.88
2022-12-11T16:41:11.320Z,88.71
2022-12-11T16:42:43.207Z,89.78
2022-12-11T16:44:19.025Z,89.83
2022-12-11T16:46:02.435Z,88.66
2022-12-11T16:47:34.181Z,88.78
2022-12-11T16:49:05.868Z,89.44
2022-12-11T16:50:39.829Z,89.23
2022-12-11T16:52:18.991Z,90.46
2022-12-11T16:53:53.691Z,91.04
2022-12-11T16:55:25.421Z,91.41
2022-12-11T16:56:59.758Z,90.31
2022-12-11T16:58:31.409Z,90.52
2022-12-11T17:00:03.589Z,90.55
2022-12-11T17:01:36.661Z,89.70
2022-12-11T17:03:08.354Z,89.38
2022-12-11T17:04:40.156Z,89.87
2022-12-11T17:06:13.421Z,90.06
2022-12-11T17:07:45.109Z,89.64
2022-12-11T17:09:16.798Z,90.20
2022-12-11T17:10:48.424Z,89.10
2022-12-11T17:12:25.785Z,89.99
2022-12-11T17:13:58.186Z,89.61
2022-12-11T17:15:29.908Z,90.44
2022-12-11T17:17:09.213Z,90.72
2022-12-11T17:18:40.869Z,89.70
2022-12-11T17:20:12.542Z,90.78
2022-12-11T17:21:49.886Z,90.00
2022-12-11T17:23:26.265Z,90.35
2022-12-11T17:24:58.011Z,90.11
2022-12-11T17:26:29.646Z,90.37
2022-12-11T17:28:01.360Z,90.08
2022-12-11T17:29:32.978Z,90.69
2022-12-11T17:31:05.000Z,90.04
2022-12-11T17:32:38.041Z,90.16
2022-12-11T17:34:09.683Z,89.40
2022-12-11T17:35:41.340Z,89.92
2022-12-11T17:37:13.028Z,89.63
2022-12-11T17:38:44.702Z,90.18
2022-12-11T17:40:16.449Z,90.14
2022-12-11T17:41:48.103Z,89.29
2022-12-11T17:43:19.746Z,89.61
2022-12-11T17:44:51.414Z,90.19
2022-12-11T17:46:23.174Z,90.02
2022-12-11T17:47:56.311Z,89.68
2022-12-11T17:49:27.979Z,89.24
2022-12-11T17:51:02.292Z,90.09
2022-12-11T17:52:36.403Z,90.15
2022-12-11T17:54:10.029Z,89.70
2022-12-11T17:55:44.924Z,89.79
2022-12-11T17:57:16.570Z,89.87
2022-12-11T17:58:48.400Z,90.11
2022-12-11T18:00:20.119Z,90.01
2022-12-11T18:01:51.797Z,90.36
2022-12-11T18:03:25.037Z,89.92
2022-12-11T18:04:56.667Z,89.90
2022-12-11T18:06:28.515Z,90.73
2022-12-11T18:08:00.295Z,89.87
2022-12-11T18:09:32.013Z,89.96
2022-12-11T18:11:06.776Z,90.24
2022-12-11T18:12:38.407Z,89.84
2022-12-11T18:14:15.279Z,89.87
2022-12-11T18:15:59.354Z,89.46
2022-12-11T18:17:31.078Z,89.91
2022-12-11T18:19:04.146Z,90.09
2022-12-11T18:20:36.008Z,90.19
2022-12-11T18:22:07.673Z,89.37
2022-12-11T18:23:39.287Z,89.28
2022-12-11T18:25:11.836Z,89.69
2022-12-11T18:26:45.703Z,89.55
2022-12-11T18:28:17.445Z,90.40
2022-12-11T18:29:49.060Z,90.37
2022-12-11T18:31:21.072Z,90.62
2022-12-11T18:32:55.732Z,90.81
2022-12-11T18:34:28.735Z,90.79
2022-12-11T18:36:00.366Z,90.95
2022-12-11T18:37:32.023Z,90.89
2022-12-11T18:39:03.844Z,90.71
2022-12-11T18:40:35.718Z,91.11
2022-12-11T18:42:32.443Z,90.16
2022-12-11T18:43:59.575Z,92.21
2022-12-11T18:45:31.432Z,91.49
2022-12-11T18:47:03.187Z,90.41
2022-12-11T18:48:34.944Z,89.67
2022-12-11T18:50:10.649Z,89.13
2022-12-11T18:51:44.678Z,89.40
2022-12-11T18:53:17.056Z,89.17
2022-12-11T18:54:49.197Z,89.80
2022-12-11T18:56:23.685Z,89.36
2022-12-11T18:57:55.338Z,89.59
2022-12-11T18:59:27.054Z,88.84
2022-12-11T19:01:01.934Z,90.58
2022-12-11T19:02:33.612Z,90.45
2022-12-11T19:04:10.460Z,90.52
2022-12-11T19:05:46.475Z,90.24
2022-12-11T19:07:18.114Z,90.59
2022-12-11T19:08:49.874Z,90.45
2022-12-11T19:10:21.480Z,90.41
2022-12-11T19:11:53.611Z,90.04
2022-12-11T19:13:25.268Z,89.92
2022-12-11T19:14:56.918Z,90.43
2022-12-11T19:16:29.863Z,90.31
2022-12-11T19:18:01.551Z,90.09
2022-12-11T19:19:33.285Z,89.79
2022-12-11T19:21:12.510Z,89.78
2022-12-11T19:22:47.144Z,90.08
2022-12-11T19:24:20.058Z,90.23
2022-12-11T19:25:51.718Z,89.85
2022-12-11T19:27:23.359Z,89.99
2022-12-11T19:28:56.926Z,90.29
2022-12-11T19:30:28.649Z,90.25
2022-12-11T19:32:01.401Z,89.92
2022-12-11T19:33:33.006Z,90.15
2022-12-11T19:35:05.170Z,89.04
2022-12-11T19:36:38.190Z,89.95
2022-12-11T19:38:09.879Z,89.62
2022-12-11T19:39:41.576Z,90.22
2022-12-11T19:41:17.154Z,90.05
2022-12-11T19:42:48.915Z,89.59
2022-12-11T19:44:20.659Z,90.14
2022-12-11T19:45:52.322Z,90.20
2022-12-11T19:47:24.020Z,90.29
2022-12-11T19:48:56.584Z,89.90
2022-12-11T19:50:28.279Z,91.03
2022-12-11T19:52:01.408Z,90.95
2022-12-11T19:53:33.814Z,91.22
2022-12-11T19:55:06.649Z,90.76
2022-12-11T19:56:38.273Z,89.74
2022-12-11T19:58:10.104Z,89.94
2022-12-11T19:59:41.852Z,89.65
2022-12-11T20:01:18.036Z,88.92
2022-12-11T20:02:49.805Z,89.38
2022-12-11T20:04:21.607Z,88.77
2022-12-11T20:05:58.825Z,88.90